CheckWX is a tool to help pilots better visualize weather data.  It is not intended as a substitute for an official pre-flight weather briefing.

05:40:59 UTC

KTOI TAF
Troy Municipal at N Kenneth Campbell Field Airport
Troy, Alabama, USA
KTOI 222321Z 2300/2324 00000KT P6SM SCT250 FM231400 21004KT P6SM SCT025 FM231700 23005KT P6SM SCT040 PROB30 2318/2324 2SM TSRA BKN035CB

Aug-23@
00:00 UTC

Aug-23 @ 00:00 UTC

Aug-23@
14:00 UTC

Aug-23 @ 14:00 UTC

KTOI 222321Z 2300/2324 00000KT P6SM SCT250
Cloud Levels
  • Scattered at 25,000' AGL

Aug-23@
14:00 UTC

Aug-23 @ 14:00 UTC

Aug-23@
17:00 UTC

Aug-23 @ 17:00 UTC

FM231400 21004KT P6SM SCT025

From

From Standard forecast or significant change

Wind
  • 210° at 4 KTS
Cloud Levels
  • Scattered at 2,500' AGL

Aug-23@
17:00 UTC

Aug-23 @ 17:00 UTC

Aug-24@
00:00 UTC

Aug-24 @ 00:00 UTC

FM231700 23005KT P6SM SCT040

From

From Standard forecast or significant change

Wind
  • 230° at 5 KTS
Cloud Levels
  • Scattered at 4,000' AGL

Aug-23@
18:00 UTC

Aug-23 @ 18:00 UTC

Aug-24@
00:00 UTC

Aug-24 @ 00:00 UTC

PROB30 2318/2324 2SM TSRA BKN035CB

Probable - 30% Likelihood

Probable - 30% Likelihood during this time.

Conditions
Thunderstorm, Rain
Cloud Levels
  • Broken at 3,500' AGL